Terminal Aerodrome Forecast
Issued by NWS Tulsa, OK

Home | Current Version | Previous Version | Text Only | Print | Product List | Glossary On
Versions: 1 2 3 4 5 6 7 8 9 10 11 12 13 14
000
FTUS44 KTSA 210540
TAFFSM
TAF
KFSM 210540Z 2106/2206 25003KT P6SM OVC050
      TEMPO 2106/2109 3SM BR OVC020
     FM210900 VRB03KT 3SM BR OVC050
      TEMPO 2109/2113 OVC025
     FM211600 34005KT P6SM SCT015 BKN100
     FM212100 32009KT P6SM SKC=

USA.gov is the U.S. government's official web portal to all federal, state and local government web resources and services.